Time;durP1;ratioP1;P1;durP2;ratioP2;P2;SDS_P1;SDS_P2;PMS_P1;PMS_P2;Temp;Humidity;BMP_temperature;BMP_pressure;BME280_temperature;BME280_humidity;BME280_pressure;Samples;Min_cycle;Max_cycle;Signal;HPM_P1;HPM_P2
2021/06/20 00:01:15;;;;;;;13.10;11.48;;;;;;;21.42;100.00;97688.91;4976123;28;20077;-75
2021/06/20 00:03:40;;;;;;;13.95;11.77;;;;;;;21.38;100.00;97688.03;4994109;28;20106;-77
2021/06/20 00:06:17;;;;;;;14.65;11.82;;;;;;;21.39;100.00;97680.47;4993414;28;20069;-75
2021/06/20 00:08:43;;;;;;;13.98;12.60;;;;;;;21.38;100.00;97679.69;4993398;28;20447;-75
2021/06/20 00:11:08;;;;;;;14.07;12.23;;;;;;;21.34;100.00;97682.41;4975539;28;20126;-75
2021/06/20 00:13:33;;;;;;;13.55;10.93;;;;;;;21.34;100.00;97679.63;4993584;28;20033;-75
2021/06/20 00:15:59;;;;;;;13.10;11.02;;;;;;;21.33;100.00;97678.00;4975789;28;20511;-75
2021/06/20 00:18:24;;;;;;;13.65;12.30;;;;;;;21.30;100.00;97664.81;4976027;28;20070;-75
2021/06/20 00:20:50;;;;;;;19.77;11.77;;;;;;;21.32;100.00;97656.94;4993402;28;20050;-76
2021/06/20 00:23:16;;;;;;;12.48;11.15;;;;;;;21.33;100.00;97658.50;4993104;28;20507;-77
2021/06/20 00:25:41;;;;;;;12.98;11.63;;;;;;;21.25;100.00;97648.47;4993579;28;20034;-76
2021/06/20 00:28:07;;;;;;;13.43;11.25;;;;;;;21.18;100.00;97659.47;4975759;28;20041;-76
2021/06/20 00:30:35;;;;;;;14.00;12.25;;;;;;;21.13;100.00;97654.22;4993333;28;20061;-75
2021/06/20 00:33:01;;;;;;;13.88;11.98;;;;;;;21.09;100.00;97658.91;4975560;28;20031;-75
2021/06/20 00:35:27;;;;;;;17.95;13.00;;;;;;;21.14;100.00;97655.84;4992761;28;20026;-76
2021/06/20 00:37:53;;;;;;;14.40;12.35;;;;;;;21.13;100.00;97651.44;4993027;28;20064;-76
2021/06/20 00:40:20;;;;;;;16.55;13.48;;;;;;;21.08;100.00;97646.13;4993201;28;20113;-75
2021/06/20 00:42:46;;;;;;;15.88;12.27;;;;;;;21.11;100.00;97639.09;4993261;28;20495;-77
2021/06/20 00:45:14;;;;;;;14.10;12.60;;;;;;;21.16;100.00;97656.25;4993206;28;20061;-76
2021/06/20 00:47:40;;;;;;;13.85;12.20;;;;;;;21.13;100.00;97658.97;4993071;28;20555;-75
2021/06/20 00:50:07;;;;;;;17.02;13.30;;;;;;;21.13;100.00;97665.34;4992881;28;20038;-75
2021/06/20 00:52:36;;;;;;;18.00;13.50;;;;;;;21.14;100.00;97660.59;4992907;28;20026;-76
2021/06/20 00:55:03;;;;;;;14.75;12.88;;;;;;;21.20;100.00;97668.25;4993211;28;20026;-76
2021/06/20 00:57:29;;;;;;;15.45;12.95;;;;;;;21.12;100.00;97663.72;4992241;28;20026;-76
2021/06/20 00:59:54;;;;;;;12.98;11.40;;;;;;;21.08;100.00;97662.06;4991976;28;20027;-75
2021/06/20 01:02:20;;;;;;;15.00;13.00;;;;;;;21.16;100.00;97674.94;4975136;28;20030;-79
2021/06/20 01:04:48;;;;;;;14.30;12.77;;;;;;;21.16;100.00;97664.59;4974935;28;20068;-77
2021/06/20 01:07:16;;;;;;;14.95;13.48;;;;;;;21.14;100.00;97655.84;4991827;28;20054;-78
2021/06/20 01:09:41;;;;;;;14.57;13.05;;;;;;;21.19;100.00;97654.72;4992584;28;20471;-79
2021/06/20 01:12:07;;;;;;;17.00;11.93;;;;;;;21.20;100.00;97657.13;4974762;28;20129;-77
2021/06/20 01:14:34;;;;;;;16.48;13.80;;;;;;;21.15;100.00;97656.63;4992602;28;20464;-78
2021/06/20 01:17:00;;;;;;;15.45;11.77;;;;;;;21.06;100.00;97658.81;4992591;28;20076;-76
2021/06/20 01:19:26;;;;;;;13.82;12.43;;;;;;;21.01;100.00;97657.16;4992522;28;20026;-78
2021/06/20 01:21:51;;;;;;;15.75;12.60;;;;;;;21.03;100.00;97662.34;4992278;28;20442;-77
2021/06/20 01:24:18;;;;;;;15.18;13.15;;;;;;;20.98;100.00;97646.78;4974795;28;20034;-77
2021/06/20 01:26:44;;;;;;;14.25;12.60;;;;;;;20.97;100.00;97656.28;4974896;28;20376;-76
2021/06/20 01:29:12;;;;;;;13.10;11.70;;;;;;;21.00;100.00;97657.53;5000601;28;20064;-75
2021/06/20 01:31:39;;;;;;;16.52;13.07;;;;;;;21.02;100.00;97661.53;4979812;28;20023;-75
2021/06/20 01:34:05;;;;;;;14.43;12.50;;;;;;;20.98;100.00;97665.44;4974775;28;20419;-76
2021/06/20 01:36:31;;;;;;;18.55;14.48;;;;;;;20.93;100.00;97658.19;4974516;28;20026;-75
2021/06/20 01:38:57;;;;;;;17.73;12.93;;;;;;;20.89;100.00;97642.63;4992228;28;20027;-76
2021/06/20 01:41:23;;;;;;;15.73;13.15;;;;;;;20.94;100.00;97640.34;4992395;28;20077;-77
2021/06/20 01:43:48;;;;;;;16.85;12.45;;;;;;;20.91;100.00;97646.66;4991852;28;20027;-77
2021/06/20 01:46:14;;;;;;;12.93;11.60;;;;;;;20.83;100.00;97639.38;4991923;28;20034;-77
2021/06/20 01:48:39;;;;;;;14.32;12.82;;;;;;;20.76;100.00;97634.47;4991631;28;20125;-77
2021/06/20 01:51:06;;;;;;;15.82;13.80;;;;;;;20.82;100.00;97640.53;4991712;28;20030;-76
2021/06/20 01:53:31;;;;;;;15.68;13.45;;;;;;;20.82;100.00;97658.03;4992104;28;20034;-79
2021/06/20 01:55:57;;;;;;;23.08;13.18;;;;;;;20.76;100.00;97639.22;4974283;28;20022;-77
2021/06/20 01:58:23;;;;;;;15.20;13.38;;;;;;;20.75;100.00;97645.94;4991926;28;20411;-79
2021/06/20 02:00:51;;;;;;;18.13;13.52;;;;;;;20.69;100.00;97644.66;4974223;28;20015;-78
2021/06/20 02:03:24;;;;;;;18.20;13.55;;;;;;;20.68;100.00;97649.41;4974218;28;20157;-78
2021/06/20 02:05:51;;;;;;;14.05;12.75;;;;;;;20.70;100.00;97658.19;4991395;28;20365;-77
2021/06/20 02:08:19;;;;;;;14.48;12.98;;;;;;;20.72;100.00;97663.38;4974255;28;20073;-78
2021/06/20 02:10:52;;;;;;;16.95;13.32;;;;;;;20.65;100.00;97658.47;4991572;28;20030;-79
2021/06/20 02:13:18;;;;;;;17.48;13.45;;;;;;;20.73;100.00;97656.66;4972046;28;20049;-79
2021/06/20 02:15:44;;;;;;;18.90;13.57;;;;;;;20.70;100.00;97649.06;4973971;28;20169;-78
2021/06/20 02:18:11;;;;;;;15.77;13.95;;;;;;;20.73;100.00;97651.09;4991035;28;20129;-79
2021/06/20 02:20:38;;;;;;;16.83;14.30;;;;;;;20.72;100.00;97661.41;4991504;28;20668;-78
2021/06/20 02:23:04;;;;;;;15.27;13.65;;;;;;;20.73;100.00;97663.03;4991202;28;20030;-78
2021/06/20 02:25:29;;;;;;;15.00;13.50;;;;;;;20.77;100.00;97658.31;4991419;28;20041;-78
2021/06/20 02:27:55;;;;;;;16.08;13.13;;;;;;;20.76;100.00;97650.34;4992141;28;20058;-78
2021/06/20 02:30:22;;;;;;;14.65;13.15;;;;;;;20.77;100.00;97654.72;4991962;28;20033;-79
2021/06/20 02:32:49;;;;;;;15.15;13.50;;;;;;;20.78;100.00;97653.56;4991996;28;20434;-79
2021/06/20 02:35:16;;;;;;;15.98;13.77;;;;;;;20.77;100.00;97647.19;4991921;28;20542;-79
2021/06/20 02:37:43;;;;;;;15.52;13.07;;;;;;;20.79;100.00;97652.38;4991382;28;20387;-79
2021/06/20 02:40:09;;;;;;;17.63;15.25;;;;;;;20.76;100.00;97644.78;4991421;28;20109;-80
2021/06/20 02:42:36;;;;;;;18.90;12.57;;;;;;;20.77;100.00;97657.50;4990855;28;20099;-79
2021/06/20 02:45:06;;;;;;;14.10;12.48;;;;;;;20.77;100.00;97658.31;4973296;28;20030;-77
2021/06/20 02:47:32;;;;;;;16.73;13.02;;;;;;;20.75;100.00;97645.94;4973543;28;20530;-77
2021/06/20 02:49:57;;;;;;;14.20;12.70;;;;;;;20.55;100.00;97631.28;4991121;28;20027;-77
2021/06/20 02:52:23;;;;;;;17.80;13.32;;;;;;;20.73;100.00;97648.31;4973618;28;20019;-79
2021/06/20 02:54:52;;;;;;;14.00;12.45;;;;;;;20.74;100.00;97652.69;4973483;28;20034;-78
2021/06/20 02:57:21;;;;;;;15.23;11.52;;;;;;;20.75;100.00;97648.72;4974281;28;20069;-78
2021/06/20 02:59:48;;;;;;;14.07;12.30;;;;;;;20.70;100.00;97641.53;4973564;28;20435;-78
2021/06/20 03:02:13;;;;;;;13.13;11.82;;;;;;;20.74;100.00;97652.69;4973415;28;20113;-79
2021/06/20 03:04:39;;;;;;;14.35;12.57;;;;;;;20.73;100.00;97653.88;4990578;28;20413;-77
2021/06/20 03:07:05;;;;;;;13.63;12.23;;;;;;;20.68;100.00;97651.38;4991259;28;20030;-77
2021/06/20 03:09:30;;;;;;;13.73;12.02;;;;;;;20.70;100.00;97651.81;4991080;28;20026;-79
2021/06/20 03:11:56;;;;;;;14.35;12.82;;;;;;;20.71;100.00;97658.97;4990838;28;20047;-78
2021/06/20 03:14:22;;;;;;;17.40;13.30;;;;;;;20.66;100.00;97650.94;4991039;28;20027;-79
2021/06/20 03:16:47;;;;;;;14.93;13.52;;;;;;;20.64;100.00;97648.53;4990848;28;20058;-79
2021/06/20 03:19:14;;;;;;;13.98;12.57;;;;;;;20.67;100.00;97658.13;4990975;28;20030;-79
2021/06/20 03:21:41;;;;;;;17.23;14.52;;;;;;;20.61;100.00;97642.94;4990212;28;20030;-77
2021/06/20 03:24:07;;;;;;;15.30;12.45;;;;;;;20.61;100.00;97643.69;4972499;28;20545;-79
2021/06/20 03:26:32;;;;;;;15.02;12.75;;;;;;;20.63;100.00;97646.94;4972623;28;20034;-77
2021/06/20 03:28:58;;;;;;;13.40;11.57;;;;;;;20.67;100.00;97652.56;4990413;28;20057;-78
2021/06/20 03:31:24;;;;;;;19.77;13.45;;;;;;;20.69;100.00;97659.34;4993287;28;20036;-77
2021/06/20 03:33:49;;;;;;;13.40;12.13;;;;;;;20.74;100.00;97655.47;5004769;28;20029;-77
2021/06/20 03:36:15;;;;;;;13.38;12.05;;;;;;;20.76;100.00;97664.25;5009685;28;20065;-79
2021/06/20 03:38:40;;;;;;;14.70;13.30;;;;;;;20.81;100.00;97655.59;4994047;28;20022;-77
2021/06/20 03:41:08;;;;;;;13.52;12.25;;;;;;;20.88;100.00;97658.50;4994017;28;20045;-77
2021/06/20 03:43:33;;;;;;;15.70;13.82;;;;;;;20.91;100.00;97640.28;4992801;28;20027;-77
2021/06/20 03:45:59;;;;;;;15.18;12.75;;;;;;;21.01;100.00;97651.59;4993879;28;20053;-78
2021/06/20 03:48:24;;;;;;;13.98;12.68;;;;;;;21.09;100.00;97642.22;4980138;28;20061;-78
2021/06/20 03:50:50;;;;;;;13.93;12.50;;;;;;;21.14;100.00;97646.69;5001967;28;20038;-79
2021/06/20 03:53:15;;;;;;;13.90;12.40;;;;;;;21.16;100.00;97645.13;4998545;28;20470;-80
2021/06/20 03:55:41;;;;;;;14.00;12.52;;;;;;;21.16;100.00;97649.88;5013308;28;20065;-78
2021/06/20 03:58:06;;;;;;;14.55;13.05;;;;;;;21.17;100.00;97646.75;5013534;28;20024;-79
2021/06/20 04:00:36;;;;;;;14.90;12.45;;;;;;;21.23;100.00;97664.72;5013287;28;20064;-76
2021/06/20 04:03:03;;;;;;;13.32;11.90;;;;;;;21.23;100.00;97664.72;4996059;28;20030;-76
2021/06/20 04:05:29;;;;;;;15.75;12.48;;;;;;;21.35;100.00;97672.88;5013035;28;20040;-77
2021/06/20 04:07:54;;;;;;;13.88;12.43;;;;;;;21.39;100.00;97659.03;5018419;28;20026;-76
2021/06/20 04:10:20;;;;;;;17.95;13.05;;;;;;;21.47;100.00;97669.09;5012684;28;20033;-75
2021/06/20 04:12:45;;;;;;;14.55;13.15;;;;;;;21.48;100.00;97658.75;5013527;28;20109;-77
2021/06/20 04:15:11;;;;;;;12.43;11.25;;;;;;;21.66;100.00;97673.75;5012714;28;20022;-76
2021/06/20 04:17:37;;;;;;;13.93;12.52;;;;;;;21.72;100.00;97666.69;5011790;28;20137;-75
2021/06/20 04:20:06;;;;;;;16.75;13.90;;;;;;;21.85;99.79;97673.66;5012745;28;20029;-76
2021/06/20 04:22:32;;;;;;;16.48;13.48;;;;;;;21.92;99.44;97678.53;4995087;28;20448;-75
2021/06/20 04:24:57;;;;;;;14.20;12.70;;;;;;;21.97;97.98;97656.72;4991749;28;20113;-75
2021/06/20 04:27:23;;;;;;;13.80;12.40;;;;;;;22.18;96.41;97675.69;4993283;28;20034;-78
2021/06/20 04:29:48;;;;;;;12.38;11.07;;;;;;;22.26;95.85;97669.88;4993057;28;20022;-79
2021/06/20 04:32:13;;;;;;;14.48;12.82;;;;;;;22.34;95.00;97668.75;4993212;28;20062;-77
2021/06/20 04:34:39;;;;;;;17.95;13.27;;;;;;;22.39;93.55;97681.56;4992975;28;20034;-77
2021/06/20 04:37:04;;;;;;;14.95;12.88;;;;;;;22.35;93.66;97677.94;4993086;28;20583;-78
2021/06/20 04:39:30;;;;;;;14.75;12.85;;;;;;;22.35;93.47;97689.88;4992814;28;20096;-79
2021/06/20 04:41:55;;;;;;;14.57;12.45;;;;;;;22.33;93.79;97692.22;4993445;28;20133;-79
2021/06/20 04:47:05;;;;;;;14.07;12.32;;;;;;;22.27;93.98;97682.59;4991676;28;20513;-78
2021/06/20 04:49:30;;;;;;;14.55;12.18;;;;;;;22.28;94.02;97691.78;4992869;28;20054;-77
2021/06/20 04:51:56;;;;;;;15.05;13.52;;;;;;;22.21;93.94;97677.75;4992536;28;20029;-78
2021/06/20 04:54:21;;;;;;;19.02;13.48;;;;;;;22.22;93.47;97676.56;4991672;28;20026;-77
2021/06/20 04:56:46;;;;;;;17.70;15.20;;;;;;;22.28;93.58;97681.44;4992568;28;20061;-81
2021/06/20 04:59:12;;;;;;;15.60;14.00;;;;;;;22.32;93.61;97676.72;4991022;28;20040;-75
2021/06/20 05:01:39;;;;;;;20.13;14.50;;;;;;;22.34;93.46;97679.91;4992516;28;20034;-74
2021/06/20 05:04:05;;;;;;;15.98;13.52;;;;;;;22.34;93.44;97688.28;4992495;28;20018;-78
2021/06/20 05:06:30;;;;;;;17.13;14.82;;;;;;;22.39;93.13;97674.03;4992318;28;21127;-77
2021/06/20 05:08:56;;;;;;;16.77;15.10;;;;;;;22.46;92.10;97664.13;4992815;28;20471;-75
2021/06/20 05:11:21;;;;;;;19.48;15.43;;;;;;;22.53;91.73;97658.63;4992751;28;20502;-76
2021/06/20 05:13:47;;;;;;;17.10;14.75;;;;;;;22.69;91.37;97670.38;4993122;28;20030;-78
2021/06/20 05:16:12;;;;;;;17.27;15.45;;;;;;;22.83;90.74;97674.16;4992424;28;20387;-77
2021/06/20 05:18:38;;;;;;;15.90;13.98;;;;;;;22.85;90.13;97673.75;4992474;28;20419;-76
2021/06/20 05:21:03;;;;;;;17.98;15.05;;;;;;;22.87;89.79;97666.59;4991914;28;20026;-75
2021/06/20 05:23:29;;;;;;;16.95;12.65;;;;;;;22.97;89.81;97670.69;4992943;28;20038;-76
2021/06/20 05:25:55;;;;;;;17.38;13.52;;;;;;;23.11;88.68;97684.00;5002752;28;20069;-76
2021/06/20 05:28:20;;;;;;;16.27;13.77;;;;;;;23.20;89.11;97696.44;5012003;28;20037;-78
2021/06/20 05:30:46;;;;;;;14.60;13.13;;;;;;;23.21;88.05;97686.88;4994063;28;20026;-78
2021/06/20 05:33:13;;;;;;;13.40;12.20;;;;;;;23.32;87.81;97696.16;5011652;28;20033;-77
2021/06/20 05:35:39;;;;;;;15.18;13.48;;;;;;;23.33;87.86;97685.78;5011753;28;20033;-78
2021/06/20 05:38:04;;;;;;;15.98;14.40;;;;;;;23.45;86.42;97685.53;5011735;28;20021;-77
2021/06/20 05:40:31;;;;;;;16.27;13.02;;;;;;;23.44;85.97;97681.94;5011892;28;20403;-75
2021/06/20 05:42:56;;;;;;;18.67;14.65;;;;;;;23.48;85.88;97681.97;5011987;28;20033;-75
2021/06/20 05:45:21;;;;;;;16.23;13.98;;;;;;;23.52;85.75;97693.16;5011193;28;20029;-76
2021/06/20 05:47:47;;;;;;;19.35;13.70;;;;;;;23.60;86.22;97697.59;4994807;28;20506;-75
2021/06/20 05:50:12;;;;;;;14.65;13.07;;;;;;;23.69;84.79;97698.06;4993864;28;20832;-76
2021/06/20 05:52:38;;;;;;;14.65;12.70;;;;;;;23.82;83.84;97710.53;4984886;28;20073;-75
2021/06/20 05:55:06;;;;;;;19.15;13.52;;;;;;;23.76;84.50;97695.34;4984132;28;20022;-75
2021/06/20 05:57:31;;;;;;;17.05;12.63;;;;;;;23.85;84.25;97698.59;4999823;28;20022;-79
2021/06/20 05:59:57;;;;;;;16.10;14.30;;;;;;;23.78;84.68;97684.56;4984180;28;20543;-77
2021/06/20 06:02:22;;;;;;;16.65;14.27;;;;;;;23.81;83.99;97686.56;4976271;28;20491;-78
2021/06/20 06:04:47;;;;;;;16.70;14.18;;;;;;;23.83;84.34;97689.81;4999219;28;20403;-79
2021/06/20 06:07:13;;;;;;;21.23;13.40;;;;;;;24.09;82.90;97697.94;5002216;28;20033;-77
2021/06/20 06:09:39;;;;;;;19.63;13.90;;;;;;;24.03;83.46;97684.75;4992389;28;20475;-74
2021/06/20 06:12:05;;;;;;;17.80;13.35;;;;;;;24.09;83.33;97685.97;5002478;28;20434;-75
2021/06/20 06:14:31;;;;;;;14.57;11.85;;;;;;;24.20;83.33;97703.63;4983378;28;20450;-75
2021/06/20 06:16:56;;;;;;;13.20;11.90;;;;;;;24.32;82.48;97708.88;4998993;28;20069;-75
2021/06/20 06:19:22;;;;;;;14.40;12.35;;;;;;;24.43;81.97;97699.34;4999799;28;20030;-77
2021/06/20 06:21:48;;;;;;;13.52;12.00;;;;;;;24.56;81.74;97696.22;4985098;28;20022;-79
2021/06/20 06:24:13;;;;;;;17.27;12.77;;;;;;;24.78;79.58;97706.28;4983406;28;20026;-83
2021/06/20 06:26:38;;;;;;;14.63;13.05;;;;;;;24.88;79.60;97708.34;4984609;28;20038;-75
2021/06/20 06:29:05;;;;;;;22.33;13.50;;;;;;;24.86;80.07;97705.97;4999205;28;20026;-75
2021/06/20 06:31:31;;;;;;;13.30;11.48;;;;;;;24.97;79.99;97706.78;5000712;28;20025;-74
2021/06/20 06:33:56;;;;;;;14.43;12.23;;;;;;;25.09;80.18;97700.03;4999007;28;20395;-75
2021/06/20 06:36:22;;;;;;;14.90;12.05;;;;;;;25.22;79.50;97695.63;4999150;28;20022;-75
2021/06/20 06:38:47;;;;;;;13.38;12.02;;;;;;;25.40;78.02;97685.25;5000412;28;20026;-75
2021/06/20 06:41:17;;;;;;;16.30;11.88;;;;;;;25.63;75.92;97684.06;4998688;28;20025;-75
2021/06/20 06:43:42;;;;;;;15.13;12.55;;;;;;;25.62;76.13;97679.69;4999085;28;20029;-75
2021/06/20 06:46:08;;;;;;;22.42;20.05;;;;;;;25.58;75.78;97684.47;4999625;28;20034;-76
2021/06/20 06:48:33;;;;;;;15.55;13.40;;;;;;;25.62;75.20;97686.09;4998571;28;20043;-74
2021/06/20 06:50:59;;;;;;;17.55;15.15;;;;;;;25.67;75.97;97676.47;4999643;28;20029;-75
2021/06/20 06:53:24;;;;;;;17.17;15.48;;;;;;;25.77;74.54;97670.84;4990967;28;20558;-75
2021/06/20 06:55:49;;;;;;;29.38;20.38;;;;;;;25.72;74.71;97657.22;4991080;28;20042;-73
2021/06/20 06:58:15;;;;;;;16.27;13.57;;;;;;;25.97;74.12;97668.41;4990843;28;20089;-74
2021/06/20 07:00:40;;;;;;;20.02;16.92;;;;;;;26.05;73.67;97661.59;4990818;28;20037;-74
2021/06/20 07:03:05;;;;;;;20.88;16.73;;;;;;;26.21;73.31;97667.59;4973749;28;20030;-75
2021/06/20 07:05:31;;;;;;;14.30;11.43;;;;;;;26.37;72.25;97669.94;4999698;28;20026;-74
2021/06/20 07:07:57;;;;;;;15.85;10.45;;;;;;;26.48;72.50;97663.06;5002332;28;20100;-74
2021/06/20 07:10:22;;;;;;;12.68;11.45;;;;;;;26.65;71.52;97669.81;4986943;28;20121;-75
2021/06/20 07:12:48;;;;;;;15.25;12.20;;;;;;;26.77;69.67;97665.75;5008462;28;20025;-78
2021/06/20 07:15:14;;;;;;;12.63;11.32;;;;;;;26.77;70.44;97665.75;5002724;28;20057;-75
2021/06/20 07:17:40;;;;;;;14.15;12.05;;;;;;;26.85;69.97;97667.31;5002232;28;20037;-75
2021/06/20 07:20:09;;;;;;;17.90;13.35;;;;;;;26.88;69.22;97666.50;5001433;28;20546;-79
2021/06/20 07:22:35;;;;;;;11.90;10.50;;;;;;;26.99;69.42;97656.03;5007307;28;20041;-77
2021/06/20 07:25:01;;;;;;;13.70;11.55;;;;;;;27.11;68.92;97647.09;5004296;28;20034;-77
2021/06/20 07:27:26;;;;;;;13.07;11.68;;;;;;;27.13;67.99;97655.91;5013785;28;20061;-75
2021/06/20 07:29:52;;;;;;;18.10;10.82;;;;;;;27.08;68.20;97654.34;4995614;28;20371;-77
2021/06/20 07:32:18;;;;;;;11.50;10.27;;;;;;;27.22;68.84;97653.47;4995859;28;20014;-77
2021/06/20 07:34:44;;;;;;;10.63;9.63;;;;;;;27.30;68.60;97657.00;4996316;28;20027;-74
2021/06/20 07:37:09;;;;;;;11.85;9.10;;;;;;;27.31;68.12;97659.41;5005354;28;20395;-73
2021/06/20 07:39:35;;;;;;;12.25;10.35;;;;;;;27.36;68.42;97650.53;5011611;28;20030;-73
2021/06/20 07:42:01;;;;;;;12.98;9.13;;;;;;;27.53;68.18;97658.06;5013614;28;20018;-75
2021/06/20 07:44:27;;;;;;;10.50;9.38;;;;;;;27.68;68.48;97667.16;5013980;28;20085;-73
2021/06/20 07:46:52;;;;;;;9.63;8.73;;;;;;;27.80;67.30;97660.22;5013455;28;20080;-74
2021/06/20 07:49:18;;;;;;;10.30;8.98;;;;;;;27.89;66.67;97666.16;5013350;28;20026;-73
2021/06/20 07:51:44;;;;;;;9.30;8.32;;;;;;;27.92;65.99;97659.69;5013288;28;20033;-73
2021/06/20 07:54:09;;;;;;;9.80;8.00;;;;;;;27.95;65.14;97656.03;5013590;28;20025;-73
2021/06/20 07:56:35;;;;;;;9.00;8.15;;;;;;;28.11;64.83;97659.13;5013414;28;20482;-73
2021/06/20 07:59:00;;;;;;;9.75;8.75;;;;;;;28.20;63.94;97656.59;5013688;28;20056;-73
2021/06/20 08:01:26;;;;;;;9.43;7.85;;;;;;;28.36;63.69;97658.84;5013416;28;20492;-73
2021/06/20 08:03:52;;;;;;;11.07;8.23;;;;;;;28.50;63.51;97659.47;4995596;28;20053;-73
2021/06/20 08:06:17;;;;;;;12.60;8.48;;;;;;;28.68;61.49;97648.81;5013216;28;20075;-76
2021/06/20 08:08:42;;;;;;;8.25;7.53;;;;;;;28.81;60.05;97640.59;5013006;28;20083;-74
2021/06/20 08:11:08;;;;;;;8.80;7.68;;;;;;;28.72;61.82;97640.31;4995097;28;20391;-73
2021/06/20 08:13:33;;;;;;;9.68;7.53;;;;;;;28.84;59.90;97634.13;5013854;28;20026;-73
2021/06/20 08:15:59;;;;;;;9.32;7.00;;;;;;;28.87;59.92;97636.09;4995576;28;20034;-73
2021/06/20 08:18:24;;;;;;;9.38;7.32;;;;;;;28.95;59.86;97639.56;5013462;28;20021;-73
2021/06/20 08:20:50;;;;;;;8.23;7.53;;;;;;;28.90;60.53;97637.25;5012947;28;20037;-74
2021/06/20 08:23:15;;;;;;;8.27;7.35;;;;;;;28.85;60.31;97637.72;4995412;28;20481;-73
2021/06/20 08:25:40;;;;;;;9.35;7.05;;;;;;;28.95;59.81;97636.75;5013743;28;20491;-73
2021/06/20 08:28:06;;;;;;;8.10;7.40;;;;;;;29.15;59.82;97632.03;5018278;28;20053;-74
2021/06/20 08:30:32;;;;;;;9.00;8.13;;;;;;;29.29;59.50;97629.00;5019003;28;20036;-74
2021/06/20 08:32:57;;;;;;;8.90;8.10;;;;;;;29.32;59.32;97630.22;5013246;28;20493;-74
2021/06/20 08:35:23;;;;;;;9.32;7.35;;;;;;;29.37;59.38;97624.06;4994954;28;20026;-75
2021/06/20 08:37:49;;;;;;;7.97;7.22;;;;;;;29.27;60.52;97623.03;5012755;28;20387;-76
2021/06/20 08:40:15;;;;;;;8.50;7.60;;;;;;;29.23;60.67;97616.59;4995169;28;20062;-74
2021/06/20 08:42:41;;;;;;;8.70;7.90;;;;;;;29.33;59.73;97632.59;5013136;28;20549;-75
2021/06/20 08:45:07;;;;;;;7.80;7.00;;;;;;;29.29;59.71;97626.19;5012888;28;20030;-74
2021/06/20 08:47:34;;;;;;;10.77;8.32;;;;;;;29.21;60.00;97621.88;4995063;28;20107;-74
2021/06/20 08:49:59;;;;;;;10.35;9.30;;;;;;;29.25;60.42;97622.66;5012295;28;20022;-73
2021/06/20 08:52:25;;;;;;;8.15;7.35;;;;;;;29.39;59.99;97624.44;5003029;28;20023;-75
2021/06/20 08:55:07;;;;;;;9.10;8.20;;;;;;;29.38;60.39;97615.19;5000979;28;20042;-74
2021/06/20 08:57:37;;;;;;;8.55;7.68;;;;;;;29.41;59.30;97608.72;5000013;28;20069;-75
2021/06/20 09:00:09;;;;;;;9.10;8.23;;;;;;;29.40;59.04;97609.13;4993677;28;20398;-76
2021/06/20 09:02:35;;;;;;;8.25;7.55;;;;;;;29.47;59.23;97604.16;5001530;28;21024;-77
2021/06/20 09:05:04;;;;;;;9.30;7.80;;;;;;;29.50;59.58;97585.59;4999974;28;20034;-76
2021/06/20 09:07:41;;;;;;;10.23;7.75;;;;;;;29.69;59.14;97584.84;4982910;28;20014;-74
2021/06/20 09:10:19;;;;;;;8.93;7.15;;;;;;;29.56;59.66;97576.22;4999689;28;20828;-74
2021/06/20 09:12:53;;;;;;;7.45;6.72;;;;;;;29.79;57.36;97581.00;4984759;28;20030;-77
2021/06/20 09:15:21;;;;;;;9.05;7.45;;;;;;;29.71;57.84;97576.75;4983826;28;20056;-74
2021/06/20 09:17:49;;;;;;;8.75;7.85;;;;;;;29.80;57.51;97574.16;4982476;28;20023;-76
2021/06/20 09:20:15;;;;;;;11.82;8.23;;;;;;;29.84;58.12;97574.13;5001048;28;20021;-75
2021/06/20 09:22:40;;;;;;;9.25;8.35;;;;;;;29.86;57.65;97551.91;4998130;28;20023;-77
2021/06/20 09:25:12;;;;;;;8.68;7.75;;;;;;;29.94;58.10;97564.66;5002349;28;20526;-76
2021/06/20 09:27:37;;;;;;;8.32;7.57;;;;;;;29.98;58.03;97565.38;5001984;28;20451;-75
2021/06/20 09:30:12;;;;;;;11.93;8.13;;;;;;;30.07;57.05;97557.13;5000727;28;20022;-78
2021/06/20 09:32:51;;;;;;;9.52;7.55;;;;;;;30.10;55.10;97557.06;4994456;28;20027;-77
2021/06/20 09:35:17;;;;;;;9.10;7.50;;;;;;;30.10;55.30;97548.59;4996401;28;20022;-76
2021/06/20 09:37:58;;;;;;;9.93;8.10;;;;;;;30.19;54.96;97543.16;4994021;28;20538;-77
2021/06/20 09:40:29;;;;;;;9.02;8.15;;;;;;;30.03;55.58;97533.81;4980373;28;20057;-81
2021/06/20 09:42:55;;;;;;;8.48;7.68;;;;;;;30.08;56.21;97536.13;4986542;28;20106;-77
2021/06/20 09:45:33;;;;;;;8.02;7.32;;;;;;;30.20;56.36;97529.81;5001682;28;20471;-78
2021/06/20 09:47:59;;;;;;;12.75;7.30;;;;;;;30.25;55.72;97521.66;4998949;28;20510;-82
2021/06/20 09:50:41;;;;;;;9.73;7.15;;;;;;;30.35;56.14;97528.31;5003864;28;20026;-78
2021/06/20 09:53:07;;;;;;;7.38;6.68;;;;;;;30.51;55.34;97525.53;5001487;28;20034;-75
2021/06/20 09:55:33;;;;;;;9.50;8.20;;;;;;;30.68;54.78;97521.50;4981531;28;20072;-75
2021/06/20 09:58:01;;;;;;;9.38;8.38;;;;;;;30.86;53.10;97512.59;4981657;28;20041;-73
2021/06/20 10:00:36;;;;;;;8.60;7.22;;;;;;;30.79;53.62;97512.78;4978344;28;20054;-77
2021/06/20 10:03:01;;;;;;;10.38;7.63;;;;;;;30.49;54.32;97505.41;5001107;28;20116;-77
2021/06/20 10:05:26;;;;;;;8.88;8.07;;;;;;;30.60;55.00;97508.81;4999524;28;20129;-78
2021/06/20 10:07:52;;;;;;;10.80;7.47;;;;;;;30.66;54.88;97507.03;4982355;28;20034;-79
2021/06/20 10:10:17;;;;;;;7.60;6.90;;;;;;;30.90;54.80;97512.53;4983534;28;20453;-76
2021/06/20 10:12:43;;;;;;;8.07;7.30;;;;;;;31.07;53.28;97511.34;4999077;28;20026;-75
2021/06/20 10:15:13;;;;;;;8.75;7.88;;;;;;;30.96;53.95;97516.44;5000748;28;20030;-78
2021/06/20 10:17:43;;;;;;;8.30;7.50;;;;;;;31.02;53.96;97511.84;5001260;28;20030;-76
2021/06/20 10:20:13;;;;;;;8.20;7.40;;;;;;;31.08;53.58;97519.34;4999628;28;20034;-78
2021/06/20 10:22:44;;;;;;;10.43;7.03;;;;;;;31.09;53.72;97517.31;4999071;28;20487;-77
2021/06/20 10:25:23;;;;;;;7.88;7.18;;;;;;;31.27;52.74;97512.81;5001140;28;20041;-77
2021/06/20 10:28:07;;;;;;;7.45;6.75;;;;;;;31.37;52.37;97521.44;4998517;28;20067;-77
2021/06/20 10:30:34;;;;;;;8.90;8.00;;;;;;;31.44;52.86;97519.25;5000094;28;20027;-76
2021/06/20 10:33:07;;;;;;;9.57;7.60;;;;;;;31.59;52.66;97517.66;4981335;28;20121;-76
2021/06/20 10:35:32;;;;;;;12.05;7.30;;;;;;;31.68;51.89;97520.63;5001800;28;20026;-77
2021/06/20 10:37:58;;;;;;;7.95;7.25;;;;;;;31.71;51.83;97519.72;4998993;28;20080;-76
2021/06/20 10:40:32;;;;;;;8.98;8.10;;;;;;;31.83;50.28;97516.16;5000368;28;20014;-79
2021/06/20 10:43:19;;;;;;;9.30;7.13;;;;;;;31.76;50.00;97507.84;4980778;28;20037;-74
2021/06/20 10:45:45;;;;;;;19.42;17.30;;;;;;;31.82;49.46;97506.09;4980002;28;20045;-74
2021/06/20 10:48:20;;;;;;;20.73;18.55;;;;;;;31.82;49.94;97496.81;5000026;28;20140;-77
2021/06/20 10:50:57;;;;;;;8.35;7.47;;;;;;;31.95;49.08;97494.03;5001841;28;20045;-77
2021/06/20 10:53:24;;;;;;;7.90;7.00;;;;;;;31.92;47.77;97484.38;4980242;28;20034;-77
2021/06/20 10:55:53;;;;;;;7.88;7.05;;;;;;;31.89;48.45;97485.25;4998472;28;20030;-77
2021/06/20 10:58:24;;;;;;;8.82;7.97;;;;;;;31.92;48.96;97473.03;4996503;28;20026;-75
2021/06/20 11:00:53;;;;;;;8.40;7.20;;;;;;;31.98;47.74;97474.09;4982336;28;20022;-77
2021/06/20 11:03:27;;;;;;;6.82;6.18;;;;;;;32.06;46.70;97458.50;4984048;28;20022;-75
2021/06/20 11:05:57;;;;;;;13.32;6.90;;;;;;;32.11;47.10;97448.69;4998603;28;20201;-73
2021/06/20 11:08:32;;;;;;;10.45;7.20;;;;;;;32.14;47.11;97444.94;4999675;28;20029;-77
2021/06/20 11:11:09;;;;;;;8.55;7.00;;;;;;;32.20;47.41;97441.06;5003324;28;20034;-76
2021/06/20 11:13:35;;;;;;;7.15;6.45;;;;;;;32.32;47.74;97448.81;5001167;28;20022;-76
2021/06/20 11:16:13;;;;;;;7.85;7.10;;;;;;;32.32;46.63;97448.81;4981467;28;20056;-75
2021/06/20 11:18:40;;;;;;;8.00;7.25;;;;;;;32.20;47.75;97451.63;4998884;28;20395;-77
2021/06/20 11:21:06;;;;;;;8.80;7.90;;;;;;;32.18;47.54;97440.75;4981792;28;20022;-75